Time;durP1;ratioP1;P1;durP2;ratioP2;P2;SDS_P1;SDS_P2;PMS_P1;PMS_P2;Temp;Humidity;BMP_temperature;BMP_pressure;BME280_temperature;BME280_humidity;BME280_pressure;Samples;Min_cycle;Max_cycle;Signal;HPM_P1;HPM_P2
2022/01/20 00:00:22;;;;;;;4.00;2.80;;;;;;;;;;5051715;28;20479;-55
2022/01/20 00:02:56;;;;;;;4.37;3.70;;;;;;;;;;5051564;28;20195;-57
2022/01/20 00:06:27;;;;;;;5.23;3.27;;;;;;;;;;5051574;28;20203;-53
2022/01/20 00:27:20;;;;;;;2.90;2.23;;;;;;;;;;5055345;28;20036;-55
2022/01/20 00:37:43;;;;;;;3.03;2.07;;;;;;;;;;5034743;28;20044;-54
2022/01/20 00:40:09;;;;;;;3.57;2.30;;;;;;;;;;5034677;28;20034;-57
2022/01/20 00:42:35;;;;;;;4.43;3.13;;;;;;;;;;5034803;28;20030;-57
2022/01/20 00:45:02;;;;;;;3.37;2.20;;;;;;;;;;5034899;28;20032;-57
2022/01/20 00:47:29;;;;;;;3.43;2.43;;;;;;;;;;5034567;28;20375;-55
2022/01/20 00:49:55;;;;;;;3.40;2.07;;;;;;;;;;5034436;28;20037;-56
2022/01/20 00:52:21;;;;;;;3.43;2.57;;;;;;;;;;5035303;28;20456;-53
2022/01/20 00:54:47;;;;;;;2.60;1.63;;;;;;;;;;5054717;28;20025;-55
2022/01/20 00:57:13;;;;;;;3.77;2.23;;;;;;;;;;5054617;28;20124;-53
2022/01/20 00:59:39;;;;;;;4.80;2.83;;;;;;;;;;5054012;28;20079;-53
2022/01/20 01:02:07;;;;;;;3.20;1.83;;;;;;;;;;5054322;28;20032;-55
2022/01/20 01:04:33;;;;;;;4.30;2.93;;;;;;;;;;5054569;28;20493;-57
2022/01/20 01:09:45;;;;;;;3.20;2.03;;;;;;;;;;5053828;28;20040;-53
2022/01/20 01:12:16;;;;;;;3.83;2.57;;;;;;;;;;5054389;28;20033;-54
2022/01/20 01:14:47;;;;;;;3.27;2.07;;;;;;;;;;5054375;28;20040;-54
2022/01/20 01:21:06;;;;;;;3.60;2.20;;;;;;;;;;5053613;28;20036;-53
2022/01/20 01:22:35;;;;;;;3.73;2.10;;;;;;;;;;5053391;28;20033;-55
2022/01/20 01:25:02;;;;;;;4.67;2.27;;;;;;;;;;5053861;28;20021;-57
2022/01/20 01:27:33;;;;;;;4.03;2.00;;;;;;;;;;5054265;28;20471;-58
2022/01/20 01:30:08;;;;;;;3.33;2.30;;;;;;;;;;5033645;28;20033;-55
2022/01/20 01:35:04;;;;;;;3.53;2.30;;;;;;;;;;5033728;28;20086;-54
2022/01/20 01:40:00;;;;;;;4.03;2.57;;;;;;;;;;5033351;28;20494;-55
2022/01/20 01:42:33;;;;;;;3.63;2.17;;;;;;;;;;5033921;28;20026;-56
2022/01/20 01:45:06;;;;;;;2.30;1.67;;;;;;;;;;5033746;28;20033;-53
2022/01/20 01:47:32;;;;;;;3.87;2.23;;;;;;;;;;5033791;28;20025;-56
2022/01/20 01:49:58;;;;;;;2.27;1.53;;;;;;;;;;5033245;28;20468;-56
2022/01/20 01:52:24;;;;;;;2.93;2.27;;;;;;;;;;5035050;28;20424;-57
2022/01/20 01:54:50;;;;;;;2.53;1.67;;;;;;;;;;5053323;28;20083;-56
2022/01/20 01:57:16;;;;;;;2.87;2.00;;;;;;;;;;5053449;28;20027;-58
2022/01/20 01:59:42;;;;;;;2.93;1.90;;;;;;;;;;5052657;28;20036;-55
2022/01/20 02:02:08;;;;;;;3.20;2.13;;;;;;;;;;5053280;28;20078;-54
2022/01/20 02:04:35;;;;;;;2.63;1.67;;;;;;;;;;5053045;28;20024;-57
2022/01/20 02:18:12;;;;;;;2.67;2.10;;;;;;;;;;5052766;28;20300;-55
2022/01/20 02:20:38;;;;;;;2.73;2.03;;;;;;;;;;5053000;28;20033;-56
2022/01/20 02:23:04;;;;;;;2.03;1.23;;;;;;;;;;5052717;28;20025;-56
2022/01/20 02:25:32;;;;;;;3.80;2.23;;;;;;;;;;5052705;28;20025;-57
2022/01/20 02:27:59;;;;;;;3.53;2.47;;;;;;;;;;5047852;28;20030;-57
2022/01/20 02:30:26;;;;;;;3.50;2.50;;;;;;;;;;5032929;28;20017;-55
2022/01/20 02:32:53;;;;;;;3.90;2.20;;;;;;;;;;5032862;28;20438;-55
2022/01/20 02:35:19;;;;;;;2.77;2.17;;;;;;;;;;5032623;28;20521;-53
2022/01/20 02:37:47;;;;;;;3.60;2.03;;;;;;;;;;5032432;28;20026;-53
2022/01/20 02:44:48;;;;;;;2.67;1.97;;;;;;;;;;5032747;28;20469;-51
2022/01/20 02:45:58;;;;;;;2.07;1.27;;;;;;;;;;5032650;28;20043;-52
2022/01/20 02:48:25;;;;;;;2.67;1.43;;;;;;;;;;5031837;28;20021;-53
2022/01/20 02:50:51;;;;;;;2.70;1.83;;;;;;;;;;5032845;28;20029;-57
2022/01/20 02:53:16;;;;;;;3.30;2.27;;;;;;;;;;5041103;28;20433;-56
2022/01/20 02:55:42;;;;;;;2.70;1.60;;;;;;;;;;5052194;28;20429;-54
2022/01/20 02:58:09;;;;;;;3.23;1.77;;;;;;;;;;5051813;28;20379;-57
2022/01/20 03:00:35;;;;;;;2.57;1.30;;;;;;;;;;5052320;28;20033;-55
2022/01/20 03:03:01;;;;;;;3.13;1.67;;;;;;;;;;5052009;28;20087;-56
2022/01/20 03:05:31;;;;;;;2.13;1.27;;;;;;;;;;5052431;28;20121;-57
2022/01/20 03:07:57;;;;;;;2.00;1.10;;;;;;;;;;5051705;28;20391;-54
2022/01/20 03:10:23;;;;;;;2.60;1.43;;;;;;;;;;5052238;28;20528;-55
2022/01/20 03:12:50;;;;;;;2.40;1.40;;;;;;;;;;5052196;28;20049;-57
2022/01/20 03:15:16;;;;;;;2.13;1.37;;;;;;;;;;5052344;28;20029;-55
2022/01/20 03:17:42;;;;;;;3.00;1.47;;;;;;;;;;5051964;28;20031;-55
2022/01/20 03:20:08;;;;;;;3.40;1.50;;;;;;;;;;5051881;28;20036;-54
2022/01/20 03:22:34;;;;;;;1.40;0.97;;;;;;;;;;5052038;28;20025;-55
2022/01/20 03:25:00;;;;;;;2.13;1.53;;;;;;;;;;5051848;28;20036;-55
2022/01/20 03:27:26;;;;;;;3.47;2.10;;;;;;;;;;5051969;28;20390;-55
2022/01/20 03:29:52;;;;;;;1.87;0.90;;;;;;;;;;5031232;28;20025;-57
2022/01/20 03:32:18;;;;;;;2.07;1.27;;;;;;;;;;5032501;28;20029;-55
2022/01/20 03:34:44;;;;;;;1.43;0.97;;;;;;;;;;5032072;28;20026;-57
2022/01/20 03:37:10;;;;;;;2.73;1.53;;;;;;;;;;5032479;28;20029;-56
2022/01/20 03:39:36;;;;;;;2.67;1.57;;;;;;;;;;5031094;28;20045;-57
2022/01/20 03:42:02;;;;;;;2.63;1.40;;;;;;;;;;5031903;28;20040;-56
2022/01/20 03:44:28;;;;;;;1.83;0.63;;;;;;;;;;5031654;28;20029;-54
2022/01/20 03:46:54;;;;;;;1.47;0.70;;;;;;;;;;5032173;28;20022;-57
2022/01/20 03:49:33;;;;;;;6.87;1.13;;;;;;;;;;5031312;28;20061;-57
2022/01/20 03:51:59;;;;;;;1.63;0.97;;;;;;;;;;5031923;28;20021;-58
2022/01/20 03:54:25;;;;;;;2.37;1.30;;;;;;;;;;5049706;28;20386;-56
2022/01/20 03:56:51;;;;;;;4.97;1.40;;;;;;;;;;5053522;28;20029;-56
2022/01/20 03:59:17;;;;;;;1.70;1.07;;;;;;;;;;5054726;28;20047;-56
2022/01/20 04:01:43;;;;;;;4.30;1.90;;;;;;;;;;5055636;28;20025;-56
2022/01/20 04:04:09;;;;;;;1.77;0.80;;;;;;;;;;5055711;28;20060;-55
2022/01/20 04:06:35;;;;;;;2.40;1.47;;;;;;;;;;5055552;28;20079;-56
2022/01/20 04:09:01;;;;;;;2.10;1.37;;;;;;;;;;5054938;28;20123;-57
2022/01/20 04:11:28;;;;;;;1.93;1.33;;;;;;;;;;5055297;28;20482;-57
2022/01/20 04:13:54;;;;;;;2.20;1.13;;;;;;;;;;5055195;28;20431;-57
2022/01/20 04:16:24;;;;;;;1.93;1.07;;;;;;;;;;5055360;28;20033;-55
2022/01/20 04:18:56;;;;;;;2.50;1.15;;;;;;;;;;5054753;28;20123;-53
2022/01/20 04:21:24;;;;;;;2.53;0.87;;;;;;;;;;5055207;28;20044;-54
2022/01/20 04:23:50;;;;;;;2.40;1.00;;;;;;;;;;5055230;28;20423;-56
2022/01/20 04:26:16;;;;;;;1.70;1.10;;;;;;;;;;5054665;28;20025;-54
2022/01/20 04:28:42;;;;;;;3.83;1.87;;;;;;;;;;5044564;28;20025;-57
2022/01/20 04:31:08;;;;;;;2.33;1.20;;;;;;;;;;5030348;28;20034;-55
2022/01/20 04:33:34;;;;;;;1.60;1.03;;;;;;;;;;5035231;28;20025;-56
2022/01/20 04:36:00;;;;;;;2.87;1.83;;;;;;;;;;5035274;28;20490;-56
2022/01/20 04:38:26;;;;;;;3.23;2.30;;;;;;;;;;5034501;28;20032;-55
2022/01/20 04:40:52;;;;;;;2.43;1.73;;;;;;;;;;5034516;28;20132;-57
2022/01/20 04:43:19;;;;;;;5.63;1.60;;;;;;;;;;5035177;28;20030;-56
2022/01/20 04:45:53;;;;;;;2.60;1.27;;;;;;;;;;5034779;28;20490;-57
2022/01/20 04:59:08;;;;;;;2.23;1.37;;;;;;;;;;5054418;28;20036;-57
2022/01/20 05:01:34;;;;;;;4.97;1.70;;;;;;;;;;5054330;28;20459;-57
2022/01/20 05:04:02;;;;;;;2.80;1.67;;;;;;;;;;5054564;28;20386;-57
2022/01/20 05:06:28;;;;;;;6.83;2.43;;;;;;;;;;5054550;28;20110;-55
2022/01/20 05:08:54;;;;;;;2.53;1.67;;;;;;;;;;5053417;28;20033;-57
2022/01/20 05:11:20;;;;;;;3.83;2.23;;;;;;;;;;5053498;28;20040;-56
2022/01/20 05:13:46;;;;;;;3.60;2.30;;;;;;;;;;5054775;28;20366;-57
2022/01/20 05:16:12;;;;;;;3.00;1.83;;;;;;;;;;5054048;28;20391;-57
2022/01/20 05:18:38;;;;;;;2.20;1.53;;;;;;;;;;5053779;28;20029;-57
2022/01/20 05:21:04;;;;;;;2.87;1.87;;;;;;;;;;5054022;28;20238;-57
2022/01/20 05:23:30;;;;;;;4.97;2.27;;;;;;;;;;5054215;28;20029;-57
2022/01/20 05:25:56;;;;;;;9.07;2.30;;;;;;;;;;5052733;28;20486;-57
2022/01/20 05:28:22;;;;;;;4.57;1.93;;;;;;;;;;5053295;28;20032;-58
2022/01/20 05:30:48;;;;;;;3.10;2.20;;;;;;;;;;5053799;28;20029;-56
2022/01/20 05:33:14;;;;;;;3.03;2.10;;;;;;;;;;5054085;28;20470;-57
2022/01/20 05:35:40;;;;;;;4.97;2.90;;;;;;;;;;5053877;28;20351;-57
2022/01/20 05:38:06;;;;;;;6.33;2.53;;;;;;;;;;5053031;28;20497;-55
2022/01/20 05:40:34;;;;;;;2.97;2.10;;;;;;;;;;5053706;28;20122;-57
2022/01/20 05:43:00;;;;;;;3.90;2.17;;;;;;;;;;5053571;28;20024;-57
2022/01/20 05:45:27;;;;;;;2.73;2.03;;;;;;;;;;5053826;28;20362;-55
2022/01/20 05:48:00;;;;;;;3.87;2.33;;;;;;;;;;5053112;28;20036;-57
2022/01/20 05:50:26;;;;;;;3.90;2.63;;;;;;;;;;5053492;28;20053;-57
2022/01/20 05:52:52;;;;;;;4.80;3.50;;;;;;;;;;5053297;28;20395;-56
2022/01/20 05:55:20;;;;;;;15.43;3.40;;;;;;;;;;5053629;28;20033;-58
2022/01/20 05:57:46;;;;;;;2.83;2.20;;;;;;;;;;5052634;28;20051;-58
2022/01/20 06:00:14;;;;;;;3.57;2.73;;;;;;;;;;5053619;28;20372;-57
2022/01/20 06:05:25;;;;;;;2.87;2.03;;;;;;;;;;5033521;28;20398;-57
2022/01/20 06:07:51;;;;;;;2.93;1.90;;;;;;;;;;5033211;28;20052;-57
2022/01/20 06:10:17;;;;;;;4.63;1.93;;;;;;;;;;5047474;28;20029;-57
2022/01/20 06:12:43;;;;;;;2.93;1.83;;;;;;;;;;5032774;28;20053;-55
2022/01/20 06:15:13;;;;;;;7.97;2.73;;;;;;;;;;5050210;28;20434;-56
2022/01/20 06:17:39;;;;;;;2.67;2.00;;;;;;;;;;5048324;28;20021;-56
2022/01/20 06:20:06;;;;;;;3.50;1.87;;;;;;;;;;5049578;28;20036;-57
2022/01/20 06:22:32;;;;;;;8.40;2.10;;;;;;;;;;5052237;28;20056;-57
2022/01/20 06:24:58;;;;;;;9.60;2.60;;;;;;;;;;5052414;28;20036;-55
2022/01/20 06:27:23;;;;;;;3.43;2.27;;;;;;;;;;5052254;28;20129;-57
2022/01/20 06:29:50;;;;;;;2.50;1.50;;;;;;;;;;5051066;28;20036;-57
2022/01/20 06:32:15;;;;;;;2.83;1.67;;;;;;;;;;5051199;28;20032;-57
2022/01/20 06:34:41;;;;;;;4.10;2.60;;;;;;;;;;5052133;28;20021;-57
2022/01/20 06:37:07;;;;;;;5.27;2.30;;;;;;;;;;5051662;28;20155;-55
2022/01/20 06:39:33;;;;;;;3.53;2.50;;;;;;;;;;5048054;28;20032;-55
2022/01/20 06:41:59;;;;;;;3.87;2.20;;;;;;;;;;5052325;28;20044;-54
2022/01/20 06:44:25;;;;;;;3.37;2.20;;;;;;;;;;5052360;28;20104;-55
2022/01/20 06:46:51;;;;;;;3.07;1.73;;;;;;;;;;5051485;28;20037;-57
2022/01/20 06:49:18;;;;;;;4.73;2.17;;;;;;;;;;5051151;28;20033;-56
2022/01/20 06:51:44;;;;;;;2.07;1.43;;;;;;;;;;5051632;28;20148;-54
2022/01/20 06:54:11;;;;;;;3.33;1.63;;;;;;;;;;5051183;28;20029;-56
2022/01/20 06:56:37;;;;;;;5.33;1.30;;;;;;;;;;5051812;28;20041;-57
2022/01/20 06:59:03;;;;;;;3.47;2.10;;;;;;;;;;5050763;28;20072;-57
2022/01/20 07:01:29;;;;;;;2.63;1.60;;;;;;;;;;5051819;28;20037;-57
2022/01/20 07:03:55;;;;;;;2.07;1.50;;;;;;;;;;5051490;28;20083;-57
2022/01/20 07:06:21;;;;;;;4.27;1.70;;;;;;;;;;5051734;28;20462;-57
2022/01/20 07:08:47;;;;;;;3.30;2.07;;;;;;;;;;5049613;28;20044;-54
2022/01/20 07:11:13;;;;;;;2.03;1.43;;;;;;;;;;5044367;28;20033;-56
2022/01/20 07:13:39;;;;;;;3.77;2.07;;;;;;;;;;5049758;28;20055;-57
2022/01/20 07:16:05;;;;;;;2.37;1.83;;;;;;;;;;5049662;28;20108;-54
2022/01/20 07:18:31;;;;;;;3.33;1.53;;;;;;;;;;5047906;28;20059;-55
2022/01/20 07:20:57;;;;;;;3.33;1.77;;;;;;;;;;5049705;28;20068;-56
2022/01/20 07:23:23;;;;;;;3.27;1.77;;;;;;;;;;5048532;28;20021;-58
2022/01/20 07:25:49;;;;;;;2.53;1.70;;;;;;;;;;5049263;28;20025;-57
2022/01/20 07:28:15;;;;;;;1.60;1.07;;;;;;;;;;5049212;28;20446;-56
2022/01/20 07:30:41;;;;;;;1.93;1.20;;;;;;;;;;5051117;28;20029;-58
2022/01/20 07:33:08;;;;;;;1.50;1.00;;;;;;;;;;5054992;28;20115;-55
2022/01/20 07:35:34;;;;;;;3.17;2.03;;;;;;;;;;5055282;28;20402;-57
2022/01/20 07:38:00;;;;;;;3.83;2.70;;;;;;;;;;5055291;28;20036;-57
2022/01/20 07:40:26;;;;;;;2.90;1.83;;;;;;;;;;5055150;28;20033;-56
2022/01/20 07:42:52;;;;;;;2.27;1.40;;;;;;;;;;5054330;28;20477;-56
2022/01/20 07:45:18;;;;;;;4.27;2.23;;;;;;;;;;5054796;28;20104;-54
2022/01/20 07:47:44;;;;;;;3.00;1.80;;;;;;;;;;5054433;28;20394;-57
2022/01/20 07:50:10;;;;;;;5.07;2.43;;;;;;;;;;5054812;28;20037;-57
2022/01/20 07:52:36;;;;;;;7.93;2.13;;;;;;;;;;5055012;28;20455;-56
2022/01/20 07:55:03;;;;;;;2.90;1.80;;;;;;;;;;5052843;28;20421;-56
2022/01/20 07:57:29;;;;;;;4.13;2.23;;;;;;;;;;5054598;28;20108;-55
2022/01/20 07:59:55;;;;;;;3.10;2.17;;;;;;;;;;5054200;28;20120;-57
2022/01/20 08:02:21;;;;;;;3.17;2.27;;;;;;;;;;5054808;28;20424;-56
2022/01/20 08:04:47;;;;;;;4.10;2.63;;;;;;;;;;5055002;28;20411;-57
2022/01/20 08:07:13;;;;;;;7.20;3.17;;;;;;;;;;5054785;28;20436;-52
2022/01/20 08:09:39;;;;;;;7.07;3.40;;;;;;;;;;5053462;28;20020;-55
2022/01/20 08:12:05;;;;;;;8.87;2.87;;;;;;;;;;5055174;28;20037;-53
2022/01/20 08:14:31;;;;;;;4.97;2.60;;;;;;;;;;5055123;28;20025;-54
2022/01/20 08:16:57;;;;;;;5.30;2.63;;;;;;;;;;5054508;28;20044;-58
2022/01/20 08:19:23;;;;;;;5.27;2.40;;;;;;;;;;5054499;28;20029;-55
2022/01/20 08:21:49;;;;;;;15.93;4.00;;;;;;;;;;5054301;28;20111;-56
2022/01/20 08:24:15;;;;;;;4.77;3.13;;;;;;;;;;5054999;28;20029;-57
2022/01/20 08:26:41;;;;;;;10.77;3.33;;;;;;;;;;5053926;28;20029;-56
2022/01/20 08:29:07;;;;;;;6.67;2.33;;;;;;;;;;5054357;28;20039;-55
2022/01/20 08:31:33;;;;;;;4.47;2.57;;;;;;;;;;5055050;28;20033;-57
2022/01/20 08:33:59;;;;;;;5.43;2.63;;;;;;;;;;5053159;28;20032;-55
2022/01/20 08:36:25;;;;;;;8.70;3.23;;;;;;;;;;5054198;28;20162;-57
2022/01/20 08:38:51;;;;;;;6.13;3.37;;;;;;;;;;5053782;28;20025;-57
2022/01/20 08:41:17;;;;;;;5.60;2.70;;;;;;;;;;5053815;28;20033;-57
2022/01/20 08:43:43;;;;;;;9.47;3.27;;;;;;;;;;5053552;28;20063;-55
2022/01/20 08:46:10;;;;;;;5.43;2.50;;;;;;;;;;5053211;28;20065;-51
2022/01/20 08:48:37;;;;;;;8.70;3.60;;;;;;;;;;5051043;28;20029;-53
2022/01/20 08:51:04;;;;;;;5.40;3.17;;;;;;;;;;5052873;28;20045;-54
2022/01/20 08:53:31;;;;;;;5.67;3.37;;;;;;;;;;5052217;28;20530;-57
2022/01/20 08:55:58;;;;;;;4.90;2.53;;;;;;;;;;5052314;28;20032;-53
2022/01/20 08:58:24;;;;;;;10.53;4.13;;;;;;;;;;5052392;28;20032;-53
2022/01/20 09:00:50;;;;;;;15.17;3.33;;;;;;;;;;5053124;28;20033;-57
2022/01/20 09:03:15;;;;;;;3.17;2.17;;;;;;;;;;5053758;28;20079;-56
2022/01/20 09:05:42;;;;;;;5.07;3.00;;;;;;;;;;5054117;28;20399;-56
2022/01/20 09:08:08;;;;;;;5.23;2.37;;;;;;;;;;5052616;28;20475;-57
2022/01/20 09:10:38;;;;;;;4.37;2.93;;;;;;;;;;5054274;28;20039;-55
2022/01/20 09:15:50;;;;;;;5.80;2.17;;;;;;;;;;5053433;28;20028;-55
2022/01/20 09:18:18;;;;;;;6.53;2.93;;;;;;;;;;5052504;28;20036;-57
2022/01/20 09:20:44;;;;;;;8.87;2.40;;;;;;;;;;5053423;28;20041;-53
2022/01/20 09:23:10;;;;;;;5.87;1.77;;;;;;;;;;5050712;28;20113;-57
2022/01/20 09:25:39;;;;;;;6.23;1.90;;;;;;;;;;5051040;28;20051;-55
2022/01/20 09:28:06;;;;;;;7.07;1.97;;;;;;;;;;5051797;28;20033;-56
2022/01/20 09:30:33;;;;;;;7.97;3.13;;;;;;;;;;5053155;28;20086;-57
2022/01/20 09:35:36;;;;;;;11.90;3.10;;;;;;;;;;5053710;28;20383;-57
2022/01/20 09:38:02;;;;;;;17.43;3.30;;;;;;;;;;5051547;28;20522;-56
2022/01/20 09:40:30;;;;;;;3.17;2.40;;;;;;;;;;5052785;28;20029;-57
2022/01/20 09:42:56;;;;;;;9.63;4.27;;;;;;;;;;5052882;28;20029;-53
2022/01/20 09:45:22;;;;;;;8.80;3.17;;;;;;;;;;5052600;28;20033;-56
2022/01/20 09:47:48;;;;;;;4.10;2.10;;;;;;;;;;5052139;28;20025;-56
2022/01/20 09:50:15;;;;;;;7.67;2.37;;;;;;;;;;5048661;28;20025;-57
2022/01/20 09:52:41;;;;;;;6.07;2.87;;;;;;;;;;5052905;28;20021;-57
2022/01/20 09:55:08;;;;;;;6.47;2.47;;;;;;;;;;5052085;28;20059;-57
2022/01/20 09:57:34;;;;;;;10.17;3.13;;;;;;;;;;5050429;28;20462;-58
2022/01/20 10:00:03;;;;;;;2.93;2.23;;;;;;;;;;5052255;28;20124;-57
2022/01/20 10:02:29;;;;;;;7.87;2.63;;;;;;;;;;5052616;28;20021;-57
2022/01/20 10:04:56;;;;;;;7.60;2.33;;;;;;;;;;5052460;28;20040;-54
2022/01/20 10:07:22;;;;;;;6.57;3.10;;;;;;;;;;5052402;28;20498;-57
2022/01/20 10:09:49;;;;;;;8.67;3.03;;;;;;;;;;5050020;28;20063;-57
2022/01/20 10:12:17;;;;;;;4.40;2.25;;;;;;;;;;5051803;28;20056;-56
2022/01/20 10:14:50;;;;;;;4.57;1.93;;;;;;;;;;5052561;28;20041;-56
2022/01/20 10:17:19;;;;;;;9.93;2.55;;;;;;;;;;5032560;28;20029;-57
2022/01/20 10:19:45;;;;;;;7.37;2.60;;;;;;;;;;5046709;28;20021;-56
2022/01/20 10:22:15;;;;;;;13.30;4.33;;;;;;;;;;5052381;28;20079;-57
2022/01/20 10:24:42;;;;;;;7.20;2.47;;;;;;;;;;5051084;28;20079;-53
2022/01/20 10:27:12;;;;;;;5.97;2.70;;;;;;;;;;5052863;28;20406;-54
2022/01/20 10:29:38;;;;;;;3.65;1.88;;;;;;;;;;5051704;28;20029;-54
2022/01/20 10:32:04;;;;;;;5.80;2.47;;;;;;;;;;5052277;28;20029;-55
2022/01/20 10:34:32;;;;;;;6.80;2.57;;;;;;;;;;5051888;28;20025;-55
2022/01/20 10:37:00;;;;;;;8.13;2.73;;;;;;;;;;5051949;28;20044;-56
2022/01/20 10:39:27;;;;;;;7.90;2.63;;;;;;;;;;5051849;28;20124;-56
2022/01/20 10:42:08;;;;;;;7.73;2.50;;;;;;;;;;5051859;28;20132;-57
2022/01/20 10:44:46;;;;;;;5.50;2.27;;;;;;;;;;5052289;28;20033;-57
2022/01/20 10:47:13;;;;;;;6.20;2.40;;;;;;;;;;5052225;28;20048;-54
2022/01/20 10:49:40;;;;;;;7.75;3.13;;;;;;;;;;5050915;28;20037;-56
2022/01/20 10:52:07;;;;;;;10.27;2.57;;;;;;;;;;5051495;28;20033;-57
2022/01/20 10:54:41;;;;;;;5.67;2.30;;;;;;;;;;5052195;28;20401;-52
2022/01/20 10:57:08;;;;;;;8.57;2.63;;;;;;;;;;5051836;28;20036;-55
2022/01/20 10:59:34;;;;;;;4.13;2.40;;;;;;;;;;5051562;28;20181;-57
2022/01/20 11:02:07;;;;;;;5.20;2.13;;;;;;;;;;5051988;28;20475;-57
2022/01/20 11:04:35;;;;;;;6.13;2.23;;;;;;;;;;5051551;28;20029;-56
2022/01/20 11:07:05;;;;;;;6.22;3.83;;;;;;;;;;5044681;28;20477;-55
2022/01/20 11:09:34;;;;;;;7.85;2.65;;;;;;;;;;5050889;28;20075;-57
2022/01/20 11:12:01;;;;;;;6.77;2.80;;;;;;;;;;5050672;28;20037;-54
2022/01/20 11:14:27;;;;;;;6.95;2.47;;;;;;;;;;5051515;28;20033;-56
2022/01/20 11:16:53;;;;;;;4.13;2.60;;;;;;;;;;5050762;28;20028;-57
2022/01/20 11:19:21;;;;;;;3.23;2.20;;;;;;;;;;5051193;28;20029;-53
2022/01/20 11:21:48;;;;;;;9.97;3.00;;;;;;;;;;5051479;28;20505;-56
2022/01/20 11:24:32;;;;;;;4.90;2.23;;;;;;;;;;5051185;28;20443;-57
2022/01/20 11:26:59;;;;;;;5.00;2.08;;;;;;;;;;5051372;28;20033;-56
2022/01/20 11:29:38;;;;;;;5.28;2.08;;;;;;;;;;5050596;28;20157;-57
2022/01/20 11:32:15;;;;;;;9.33;3.10;;;;;;;;;;5051801;28;20037;-57
2022/01/20 11:34:41;;;;;;;4.73;2.30;;;;;;;;;;5051201;28;20037;-56
2022/01/20 11:37:08;;;;;;;8.07;2.75;;;;;;;;;;5051271;28;20040;-54
2022/01/20 11:39:34;;;;;;;8.00;3.07;;;;;;;;;;5050666;28;20071;-53
2022/01/20 11:42:01;;;;;;;6.03;3.90;;;;;;;;;;5044880;28;20040;-57
2022/01/20 11:44:28;;;;;;;5.50;3.07;;;;;;;;;;5050592;28;20040;-56
2022/01/20 11:47:04;;;;;;;4.03;1.83;;;;;;;;;;5051272;28;20031;-53
2022/01/20 11:49:35;;;;;;;6.70;3.07;;;;;;;;;;5050483;28;20061;-56
2022/01/20 11:52:01;;;;;;;5.90;3.15;;;;;;;;;;5050842;28;20049;-57
2022/01/20 11:54:28;;;;;;;4.60;3.00;;;;;;;;;;5051297;28;20116;-56
2022/01/20 11:57:05;;;;;;;10.27;5.07;;;;;;;;;;5051241;28;20422;-56
2022/01/20 11:59:59;;;;;;;9.85;4.45;;;;;;;;;;5050955;28;20041;-58
2022/01/20 12:02:34;;;;;;;8.53;4.03;;;;;;;;;;5050436;28;20140;-54
2022/01/20 12:05:01;;;;;;;6.43;3.07;;;;;;;;;;5051135;28;20355;-57
2022/01/20 12:07:31;;;;;;;5.13;2.10;;;;;;;;;;5051351;28;20036;-56
2022/01/20 12:10:05;;;;;;;9.23;2.30;;;;;;;;;;5047387;28;20431;-57
2022/01/20 12:12:32;;;;;;;10.23;4.22;;;;;;;;;;5045813;28;20021;-56
2022/01/20 12:15:07;;;;;;;10.63;3.45;;;;;;;;;;5049762;28;20052;-55
2022/01/20 12:17:33;;;;;;;7.43;2.30;;;;;;;;;;5052031;28;20497;-54
2022/01/20 12:19:59;;;;;;;4.33;2.10;;;;;;;;;;5052302;28;20036;-56
2022/01/20 12:22:25;;;;;;;4.95;2.72;;;;;;;;;;5052812;28;20363;-55
2022/01/20 12:24:55;;;;;;;2.80;1.20;;;;;;;;;;5052901;28;20437;-57
2022/01/20 12:27:22;;;;;;;8.00;2.15;;;;;;;;;;5054209;28;20483;-54
2022/01/20 12:29:48;;;;;;;5.45;2.28;;;;;;;;;;5054109;28;20033;-55
2022/01/20 12:32:17;;;;;;;4.83;1.47;;;;;;;;;;5053798;28;20098;-57
2022/01/20 12:34:43;;;;;;;3.03;1.33;;;;;;;;;;5054347;28;20017;-57
2022/01/20 12:37:09;;;;;;;2.03;1.07;;;;;;;;;;5053584;28;20453;-56
2022/01/20 12:39:37;;;;;;;4.40;1.90;;;;;;;;;;5052920;28;20029;-57
2022/01/20 12:42:04;;;;;;;1.67;1.10;;;;;;;;;;5053803;28;20040;-57
2022/01/20 12:44:48;;;;;;;1.93;1.00;;;;;;;;;;5053930;28;20035;-57
2022/01/20 12:47:15;;;;;;;1.00;0.50;;;;;;;;;;5053868;28;20021;-57
2022/01/20 12:49:42;;;;;;;1.03;0.53;;;;;;;;;;5052154;28;20033;-55
2022/01/20 12:52:08;;;;;;;3.13;1.10;;;;;;;;;;5053107;28;20033;-57
2022/01/20 12:54:34;;;;;;;1.57;0.90;;;;;;;;;;5054069;28;20529;-56
2022/01/20 12:57:02;;;;;;;4.27;1.33;;;;;;;;;;5053639;28;20024;-55
2022/01/20 12:59:32;;;;;;;7.30;2.27;;;;;;;;;;5053019;28;20402;-56
2022/01/20 13:02:08;;;;;;;2.60;1.20;;;;;;;;;;5051121;28;20044;-56
2022/01/20 13:04:36;;;;;;;1.03;0.50;;;;;;;;;;5053145;28;20032;-53
2022/01/20 13:07:03;;;;;;;2.27;0.77;;;;;;;;;;5053691;28;20078;-57
2022/01/20 13:09:38;;;;;;;2.13;1.37;;;;;;;;;;5044062;28;20056;-57
2022/01/20 13:12:04;;;;;;;2.90;1.20;;;;;;;;;;5049849;28;20418;-57
2022/01/20 13:14:33;;;;;;;6.20;1.53;;;;;;;;;;5050698;28;20029;-57
2022/01/20 13:16:59;;;;;;;4.23;1.60;;;;;;;;;;5051330;28;20024;-59
2022/01/20 13:19:32;;;;;;;4.97;1.73;;;;;;;;;;5049457;28;20363;-56
2022/01/20 13:22:00;;;;;;;1.80;0.80;;;;;;;;;;5053527;28;20098;-57
2022/01/20 13:24:27;;;;;;;1.67;0.70;;;;;;;;;;5051269;28;20028;-56
2022/01/20 13:26:54;;;;;;;7.97;1.50;;;;;;;;;;5048189;28;20131;-57
2022/01/20 13:29:20;;;;;;;3.10;0.97;;;;;;;;;;5046696;28;20029;-55
2022/01/20 13:31:47;;;;;;;3.93;1.13;;;;;;;;;;5052836;28;20032;-57
2022/01/20 13:34:18;;;;;;;2.23;1.10;;;;;;;;;;5047423;28;20037;-57
2022/01/20 13:36:54;;;;;;;5.23;2.10;;;;;;;;;;5052833;28;20505;-55
2022/01/20 13:39:29;;;;;;;5.07;1.57;;;;;;;;;;5044059;28;20446;-57
2022/01/20 13:42:06;;;;;;;4.73;2.47;;;;;;;;;;5046420;28;20029;-54
2022/01/20 13:47:16;;;;;;;3.87;0.93;;;;;;;;;;5049577;28;20119;-51
2022/01/20 13:49:50;;;;;;;1.83;1.13;;;;;;;;;;5051695;28;20449;-56
2022/01/20 13:52:19;;;;;;;1.73;1.17;;;;;;;;;;5052419;28;20045;-57
2022/01/20 13:54:54;;;;;;;3.13;2.37;;;;;;;;;;5051870;28;20063;-55
2022/01/20 13:57:22;;;;;;;2.93;1.27;;;;;;;;;;5038816;28;20043;-57
2022/01/20 13:59:50;;;;;;;8.03;1.40;;;;;;;;;;5049124;28;20033;-56
2022/01/20 14:02:16;;;;;;;4.30;1.53;;;;;;;;;;5045686;28;20143;-54
2022/01/20 14:04:42;;;;;;;3.53;1.87;;;;;;;;;;5049148;28;20035;-52
2022/01/20 14:07:08;;;;;;;2.67;1.63;;;;;;;;;;5052233;28;20103;-55
2022/01/20 14:09:34;;;;;;;2.23;1.53;;;;;;;;;;5050887;28;20043;-56
2022/01/20 14:12:00;;;;;;;4.83;2.00;;;;;;;;;;5052426;28;20455;-55
2022/01/20 14:14:25;;;;;;;1.87;1.27;;;;;;;;;;5050531;28;20032;-55
2022/01/20 14:16:52;;;;;;;8.73;2.57;;;;;;;;;;5047271;28;20183;-53
2022/01/20 14:19:23;;;;;;;5.80;3.00;;;;;;;;;;5032883;28;20087;-55
2022/01/20 14:21:50;;;;;;;8.07;1.98;;;;;;;;;;5041611;28;20037;-54
2022/01/20 14:24:16;;;;;;;6.63;1.97;;;;;;;;;;5046671;28;20487;-57
2022/01/20 14:26:44;;;;;;;4.33;2.93;;;;;;;;;;5051601;28;20115;-54
2022/01/20 14:29:11;;;;;;;14.13;2.77;;;;;;;;;;5051885;28;20170;-54
2022/01/20 14:31:37;;;;;;;3.57;1.93;;;;;;;;;;5051584;28;20558;-57
2022/01/20 14:34:03;;;;;;;5.97;2.43;;;;;;;;;;5047702;28;20095;-55
2022/01/20 14:36:29;;;;;;;2.70;1.80;;;;;;;;;;5051216;28;20466;-54
2022/01/20 14:38:54;;;;;;;5.73;2.70;;;;;;;;;;5050378;28;20086;-54
2022/01/20 14:41:20;;;;;;;4.23;1.97;;;;;;;;;;5051545;28;20467;-55
2022/01/20 14:43:46;;;;;;;4.30;2.50;;;;;;;;;;5050477;28;20033;-52
2022/01/20 14:46:12;;;;;;;8.77;2.53;;;;;;;;;;5045206;28;20029;-55
2022/01/20 14:48:39;;;;;;;10.40;2.43;;;;;;;;;;5050380;28;20037;-54
2022/01/20 14:51:08;;;;;;;4.47;2.70;;;;;;;;;;5046703;28;20038;-56
2022/01/20 14:53:34;;;;;;;3.33;1.83;;;;;;;;;;5048627;28;20321;-55
2022/01/20 14:56:00;;;;;;;3.43;1.20;;;;;;;;;;5051544;28;20130;-55
2022/01/20 14:58:26;;;;;;;4.50;2.03;;;;;;;;;;5050502;28;20033;-56
2022/01/20 15:00:52;;;;;;;5.90;2.07;;;;;;;;;;5049955;28;20456;-55
2022/01/20 15:03:18;;;;;;;7.83;2.93;;;;;;;;;;5040521;28;20036;-50
2022/01/20 15:05:45;;;;;;;8.63;3.50;;;;;;;;;;5050013;28;20052;-50
2022/01/20 15:08:12;;;;;;;3.33;2.03;;;;;;;;;;5042964;28;20037;-51
2022/01/20 15:10:38;;;;;;;3.70;1.70;;;;;;;;;;5046707;28;20112;-50
2022/01/20 15:13:04;;;;;;;6.73;2.40;;;;;;;;;;5047304;28;20163;-50
2022/01/20 15:15:30;;;;;;;4.13;2.30;;;;;;;;;;5047585;28;20033;-53
2022/01/20 15:17:56;;;;;;;4.40;2.03;;;;;;;;;;5050086;28;20033;-53
2022/01/20 15:20:22;;;;;;;6.33;2.83;;;;;;;;;;5050992;28;20366;-51
2022/01/20 15:22:48;;;;;;;6.67;3.07;;;;;;;;;;5050674;28;20087;-54
2022/01/20 15:25:14;;;;;;;5.57;1.53;;;;;;;;;;5044250;28;20049;-50
2022/01/20 15:27:40;;;;;;;2.43;2.10;;;;;;;;;;5046896;28;20051;-53
2022/01/20 15:30:06;;;;;;;5.70;2.03;;;;;;;;;;5045745;28;20033;-52
2022/01/20 15:32:32;;;;;;;3.80;1.80;;;;;;;;;;5050051;28;20438;-52
2022/01/20 15:34:58;;;;;;;4.07;1.77;;;;;;;;;;5050027;28;20021;-51
2022/01/20 15:37:24;;;;;;;4.20;2.13;;;;;;;;;;5047576;28;20033;-53
2022/01/20 15:39:50;;;;;;;5.43;2.80;;;;;;;;;;5044673;28;20096;-52
2022/01/20 15:42:16;;;;;;;4.70;1.77;;;;;;;;;;5042392;28;20037;-50
2022/01/20 15:44:42;;;;;;;3.00;2.13;;;;;;;;;;5050001;28;20076;-52
2022/01/20 15:47:08;;;;;;;9.67;4.03;;;;;;;;;;5050006;28;20081;-56
2022/01/20 15:49:34;;;;;;;9.70;1.97;;;;;;;;;;5049979;28;20025;-51
2022/01/20 15:52:00;;;;;;;5.20;1.97;;;;;;;;;;5051349;28;20029;-56
2022/01/20 15:54:26;;;;;;;7.50;2.33;;;;;;;;;;5054789;28;20128;-50
2022/01/20 15:56:52;;;;;;;7.00;2.53;;;;;;;;;;5054653;28;20479;-55